Terminal Aerodrome Forecast
Issued by NWS

Home | Current Version | Previous Version | Text Only | Print | Product List | Glossary Off
Versions: 1 2 3 4 5 6 7 8 9 10 11 12 13 14 15 16 17 18 19 20 21 22

000
FTUS43 KLOT 090315 AAA
TAFGYY
TAF AMD
KGYY 090315Z 0903/0924 22010KT P6SM OVC050
     FM090500 23010KT 6SM -SN OVC040
     FM090700 23009KT 3SM -SN OVC025
      TEMPO 0908/0911 1SM -SN SCT009 OVC015
     FM091100 29011KT 4SM -SHSN OVC020
     FM091400 32015G23KT P6SM -SHSN BKN025
     FM091600 33019G29KT P6SM -SHSN OVC025
      TEMPO 0917/0920 2SM -SHSN OVC020=

USA.gov is the U.S. government's official web portal to all federal, state and local government web resources and services.